Kittiwake — WDA8782 — position and weather

sailwx.info

Track history (hours):
 
Tides and Currents Weather Stations Pressure Air Temp Water Temp Dewpoint Dewpoint Depression Visibility Wind Speed Wind Dir Waves Ship Positions

Kittiwake

Owner: Hempstead Navigation Service, LLC, Exeter, RI. More information available from US FCC via Universal Licensing System and Coast Guard Vessel Documentation Center.

Last reported at 2017-Nov-07 20:26 UTC. Time now 2017-Nov-22 11:20 UTC.
Position N 41°40' W 071°27'.
Warning: this ship's position is 14 days out of date.

Length 23 m; draft 2.4 m.

Type: Ship. MMSI: 369156000.

Date/timePositionNaut miles runAvg speedWind from/ knotsBaromVisibWave heightAir tempDewpointWater temp
2017-Nov-07 20:26N 41°40' W 071°27'2 3.8
2017-Nov-07 20:00N 41°40' W 071°25'3 4.9
2017-Nov-07 19:29N 41°39' W 071°22'7 1.7
2017-Nov-07 15:17N 41°31' W 071°24'2 6.1
2017-Nov-07 15:00N 41°33' W 071°24'3 6.0
2017-Nov-07 14:30N 41°36' W 071°23'3 5.9
2017-Nov-07 14:00N 41°39' W 071°23'2 4.9
2017-Nov-07 13:30N 41°41' W 071°25'1 1.2
2017-Nov-07 12:35N 41°40' W 071°27'0 0.0
2017-Nov-07 12:29N 41°40' W 071°27'  
2017-Nov-01 19:25N 41°40' W 071°27'1 2.0
2017-Nov-01 19:00N 41°40' W 071°26'3 5.5
2017-Nov-01 18:31N 41°39' W 071°23'  
Track history (hours):
 
Tides and Currents Weather Stations Pressure Air Temp Water Temp Dewpoint Dewpoint Depression Visibility Wind Speed Wind Dir Waves Ship Positions

Kittiwake

Owner: Hempstead Navigation Service, LLC, Exeter, RI. More information available from US FCC via Universal Licensing System and Coast Guard Vessel Documentation Center.

Last reported at 2017-Nov-07 20:26 UTC. Time now 2017-Nov-22 11:20 UTC.
Position N 41°40' W 071°27'.
Warning: this ship's position is 14 days out of date.

Length 23 m; draft 2.4 m.

Type: Ship. MMSI: 369156000.

Date/timePositionNaut miles runAvg speedWind from/ knotsBaromVisibWave heightAir tempDewpointWater temp
2017-Nov-07 20:26N 41°40' W 071°27'2 3.8
2017-Nov-07 20:00N 41°40' W 071°25'3 4.9
2017-Nov-07 19:29N 41°39' W 071°22'7 1.7
2017-Nov-07 15:17N 41°31' W 071°24'2 6.1
2017-Nov-07 15:00N 41°33' W 071°24'3 6.0
2017-Nov-07 14:30N 41°36' W 071°23'3 5.9
2017-Nov-07 14:00N 41°39' W 071°23'2 4.9
2017-Nov-07 13:30N 41°41' W 071°25'1 1.2
2017-Nov-07 12:35N 41°40' W 071°27'0 0.0
2017-Nov-07 12:29N 41°40' W 071°27'  
2017-Nov-01 19:25N 41°40' W 071°27'1 2.0
2017-Nov-01 19:00N 41°40' W 071°26'3 5.5
2017-Nov-01 18:31N 41°39' W 071°23'  

Dump ship's entire track history